sensor_id;sensor_type;location;lat;lon;timestamp;temperature;humidity
6443;DHT22;3254;47.372;8.512;2023-02-04T00:01:43;5.40;1.00
6443;DHT22;3254;47.372;8.512;2023-02-04T00:04:12;5.30;1.00
6443;DHT22;3254;47.372;8.512;2023-02-04T00:06:38;5.40;1.00
6443;DHT22;3254;47.372;8.512;2023-02-04T00:09:04;5.40;1.00
6443;DHT22;3254;47.372;8.512;2023-02-04T00:11:30;5.50;1.00
6443;DHT22;3254;47.372;8.512;2023-02-04T00:13:56;5.40;1.00
6443;DHT22;3254;47.372;8.512;2023-02-04T00:16:21;5.40;1.00
6443;DHT22;3254;47.372;8.512;2023-02-04T00:18:47;5.40;1.00
6443;DHT22;3254;47.372;8.512;2023-02-04T00:21:13;5.50;1.00
6443;DHT22;3254;47.372;8.512;2023-02-04T00:23:41;5.50;1.00
6443;DHT22;3254;47.372;8.512;2023-02-04T00:26:08;5.40;1.00
6443;DHT22;3254;47.372;8.512;2023-02-04T00:28:34;5.40;1.00
6443;DHT22;3254;47.372;8.512;2023-02-04T00:31:00;5.20;1.00
6443;DHT22;3254;47.372;8.512;2023-02-04T00:33:26;5.00;1.00
6443;DHT22;3254;47.372;8.512;2023-02-04T00:35:51;5.00;1.00
6443;DHT22;3254;47.372;8.512;2023-02-04T00:38:17;5.00;1.00
6443;DHT22;3254;47.372;8.512;2023-02-04T00:40:42;5.10;1.00
6443;DHT22;3254;47.372;8.512;2023-02-04T00:43:08;5.00;1.00
6443;DHT22;3254;47.372;8.512;2023-02-04T00:45:33;5.00;1.00
6443;DHT22;3254;47.372;8.512;2023-02-04T00:47:59;5.00;1.00
6443;DHT22;3254;47.372;8.512;2023-02-04T00:50:24;5.00;1.00
6443;DHT22;3254;47.372;8.512;2023-02-04T00:52:50;5.00;1.00
6443;DHT22;3254;47.372;8.512;2023-02-04T00:55:17;4.90;1.00
6443;DHT22;3254;47.372;8.512;2023-02-04T00:57:43;4.80;1.00
6443;DHT22;3254;47.372;8.512;2023-02-04T01:00:11;4.70;1.00
6443;DHT22;3254;47.372;8.512;2023-02-04T01:02:37;4.70;1.00
6443;DHT22;3254;47.372;8.512;2023-02-04T01:05:07;4.70;1.00
6443;DHT22;3254;47.372;8.512;2023-02-04T01:07:32;4.80;1.00
6443;DHT22;3254;47.372;8.512;2023-02-04T01:09:58;4.80;1.00
6443;DHT22;3254;47.372;8.512;2023-02-04T01:12:23;4.80;1.00
6443;DHT22;3254;47.372;8.512;2023-02-04T01:14:52;4.80;1.00
6443;DHT22;3254;47.372;8.512;2023-02-04T01:17:18;4.80;1.00
6443;DHT22;3254;47.372;8.512;2023-02-04T01:19:44;4.80;1.00
6443;DHT22;3254;47.372;8.512;2023-02-04T01:22:10;4.70;1.00
6443;DHT22;3254;47.372;8.512;2023-02-04T01:24:36;4.70;1.00
6443;DHT22;3254;47.372;8.512;2023-02-04T01:27:01;4.70;1.00
6443;DHT22;3254;47.372;8.512;2023-02-04T01:29:27;4.80;1.00
6443;DHT22;3254;47.372;8.512;2023-02-04T01:31:53;4.80;1.00
6443;DHT22;3254;47.372;8.512;2023-02-04T01:34:18;4.70;1.00
6443;DHT22;3254;47.372;8.512;2023-02-04T01:36:44;4.70;1.00
6443;DHT22;3254;47.372;8.512;2023-02-04T01:39:10;4.60;2.00
6443;DHT22;3254;47.372;8.512;2023-02-04T01:41:36;4.70;3.60
6443;DHT22;3254;47.372;8.512;2023-02-04T01:44:03;4.70;10.40
6443;DHT22;3254;47.372;8.512;2023-02-04T01:46:29;4.70;11.00
6443;DHT22;3254;47.372;8.512;2023-02-04T01:48:55;4.70;12.10
6443;DHT22;3254;47.372;8.512;2023-02-04T01:51:25;4.70;14.90
6443;DHT22;3254;47.372;8.512;2023-02-04T01:53:53;4.70;15.70
6443;DHT22;3254;47.372;8.512;2023-02-04T01:56:22;4.70;15.70
6443;DHT22;3254;47.372;8.512;2023-02-04T01:58:48;4.80;14.20
6443;DHT22;3254;47.372;8.512;2023-02-04T02:01:47;4.70;15.50
6443;DHT22;3254;47.372;8.512;2023-02-04T02:04:16;4.70;18.70
6443;DHT22;3254;47.372;8.512;2023-02-04T02:06:52;4.80;18.40
6443;DHT22;3254;47.372;8.512;2023-02-04T02:09:20;4.90;12.10
6443;DHT22;3254;47.372;8.512;2023-02-04T02:11:45;4.90;10.10
6443;DHT22;3254;47.372;8.512;2023-02-04T02:14:12;5.00;6.80
6443;DHT22;3254;47.372;8.512;2023-02-04T02:16:37;5.00;5.60
6443;DHT22;3254;47.372;8.512;2023-02-04T02:19:05;5.00;6.20
6443;DHT22;3254;47.372;8.512;2023-02-04T02:21:55;5.00;8.70
6443;DHT22;3254;47.372;8.512;2023-02-04T02:24:28;4.90;12.70
6443;DHT22;3254;47.372;8.512;2023-02-04T02:26:56;5.00;7.60
6443;DHT22;3254;47.372;8.512;2023-02-04T02:29:23;5.10;7.80
6443;DHT22;3254;47.372;8.512;2023-02-04T02:31:49;5.10;5.90
6443;DHT22;3254;47.372;8.512;2023-02-04T02:34:15;5.10;4.80
6443;DHT22;3254;47.372;8.512;2023-02-04T02:36:41;5.10;6.10
6443;DHT22;3254;47.372;8.512;2023-02-04T02:39:07;5.10;7.70
6443;DHT22;3254;47.372;8.512;2023-02-04T02:41:32;5.00;7.70
6443;DHT22;3254;47.372;8.512;2023-02-04T02:44:00;5.20;3.90
6443;DHT22;3254;47.372;8.512;2023-02-04T02:46:25;5.20;3.60
6443;DHT22;3254;47.372;8.512;2023-02-04T02:48:51;5.20;1.70
6443;DHT22;3254;47.372;8.512;2023-02-04T02:51:17;5.20;2.60
6443;DHT22;3254;47.372;8.512;2023-02-04T02:53:44;5.20;5.10
6443;DHT22;3254;47.372;8.512;2023-02-04T02:56:10;5.20;3.00
6443;DHT22;3254;47.372;8.512;2023-02-04T02:58:35;5.20;1.80
6443;DHT22;3254;47.372;8.512;2023-02-04T03:01:04;5.20;3.10
6443;DHT22;3254;47.372;8.512;2023-02-04T03:03:36;5.20;10.50
6443;DHT22;3254;47.372;8.512;2023-02-04T03:06:10;5.20;13.50
6443;DHT22;3254;47.372;8.512;2023-02-04T03:08:38;5.20;11.90
6443;DHT22;3254;47.372;8.512;2023-02-04T03:11:04;5.10;12.50
6443;DHT22;3254;47.372;8.512;2023-02-04T03:13:30;5.10;11.20
6443;DHT22;3254;47.372;8.512;2023-02-04T03:15:56;5.10;13.40
6443;DHT22;3254;47.372;8.512;2023-02-04T03:18:22;5.10;16.40
6443;DHT22;3254;47.372;8.512;2023-02-04T03:20:49;5.10;18.00
6443;DHT22;3254;47.372;8.512;2023-02-04T03:23:15;5.20;20.90
6443;DHT22;3254;47.372;8.512;2023-02-04T03:25:42;5.20;20.40
6443;DHT22;3254;47.372;8.512;2023-02-04T03:28:08;5.20;19.30
6443;DHT22;3254;47.372;8.512;2023-02-04T03:30:34;5.20;20.40
6443;DHT22;3254;47.372;8.512;2023-02-04T03:33:00;5.20;20.80
6443;DHT22;3254;47.372;8.512;2023-02-04T03:35:25;5.20;19.10
6443;DHT22;3254;47.372;8.512;2023-02-04T03:37:52;5.20;19.60
6443;DHT22;3254;47.372;8.512;2023-02-04T03:40:18;5.20;17.50
6443;DHT22;3254;47.372;8.512;2023-02-04T03:42:43;5.40;5.20
6443;DHT22;3254;47.372;8.512;2023-02-04T03:45:09;5.40;6.60
6443;DHT22;3254;47.372;8.512;2023-02-04T03:47:36;5.40;9.40
6443;DHT22;3254;47.372;8.512;2023-02-04T03:50:01;5.40;11.80
6443;DHT22;3254;47.372;8.512;2023-02-04T03:52:27;5.40;12.40
6443;DHT22;3254;47.372;8.512;2023-02-04T03:54:53;5.40;12.70
6443;DHT22;3254;47.372;8.512;2023-02-04T03:57:18;5.50;13.60
6443;DHT22;3254;47.372;8.512;2023-02-04T03:59:44;5.40;14.90
6443;DHT22;3254;47.372;8.512;2023-02-04T04:02:09;5.50;12.90
6443;DHT22;3254;47.372;8.512;2023-02-04T04:04:35;5.40;13.10
6443;DHT22;3254;47.372;8.512;2023-02-04T04:07:01;5.40;13.50
6443;DHT22;3254;47.372;8.512;2023-02-04T04:09:26;5.40;13.90
6443;DHT22;3254;47.372;8.512;2023-02-04T04:11:52;5.40;14.10
6443;DHT22;3254;47.372;8.512;2023-02-04T04:14:17;5.40;15.90
6443;DHT22;3254;47.372;8.512;2023-02-04T04:16:43;5.40;16.50
6443;DHT22;3254;47.372;8.512;2023-02-04T04:19:08;5.50;17.00
6443;DHT22;3254;47.372;8.512;2023-02-04T04:21:34;5.50;16.50
6443;DHT22;3254;47.372;8.512;2023-02-04T04:24:01;5.50;12.00
6443;DHT22;3254;47.372;8.512;2023-02-04T04:26:28;5.60;8.30
6443;DHT22;3254;47.372;8.512;2023-02-04T04:28:55;5.60;9.10
6443;DHT22;3254;47.372;8.512;2023-02-04T04:31:21;5.60;9.10
6443;DHT22;3254;47.372;8.512;2023-02-04T04:33:46;5.60;8.10
6443;DHT22;3254;47.372;8.512;2023-02-04T04:36:12;5.50;10.10
6443;DHT22;3254;47.372;8.512;2023-02-04T04:38:39;5.50;15.10
6443;DHT22;3254;47.372;8.512;2023-02-04T04:41:05;5.50;15.60
6443;DHT22;3254;47.372;8.512;2023-02-04T04:43:30;5.40;18.40
6443;DHT22;3254;47.372;8.512;2023-02-04T04:45:56;5.40;21.90
6443;DHT22;3254;47.372;8.512;2023-02-04T04:48:22;5.40;26.00
6443;DHT22;3254;47.372;8.512;2023-02-04T04:50:48;5.30;28.70
6443;DHT22;3254;47.372;8.512;2023-02-04T04:53:13;5.40;28.90
6443;DHT22;3254;47.372;8.512;2023-02-04T04:55:39;5.30;31.10
6443;DHT22;3254;47.372;8.512;2023-02-04T04:58:06;5.30;37.50
6443;DHT22;3254;47.372;8.512;2023-02-04T05:00:32;5.30;39.70
6443;DHT22;3254;47.372;8.512;2023-02-04T05:02:58;5.30;42.10
6443;DHT22;3254;47.372;8.512;2023-02-04T05:05:23;5.30;43.30
6443;DHT22;3254;47.372;8.512;2023-02-04T05:07:49;5.30;44.40
6443;DHT22;3254;47.372;8.512;2023-02-04T05:10:20;5.20;43.60
6443;DHT22;3254;47.372;8.512;2023-02-04T05:12:46;5.30;47.20
6443;DHT22;3254;47.372;8.512;2023-02-04T05:15:11;5.30;47.60
6443;DHT22;3254;47.372;8.512;2023-02-04T05:17:37;5.20;49.50
6443;DHT22;3254;47.372;8.512;2023-02-04T05:20:03;5.30;48.30
6443;DHT22;3254;47.372;8.512;2023-02-04T05:22:29;5.30;48.30
6443;DHT22;3254;47.372;8.512;2023-02-04T05:24:54;5.30;48.00
6443;DHT22;3254;47.372;8.512;2023-02-04T05:27:21;5.30;50.80
6443;DHT22;3254;47.372;8.512;2023-02-04T05:29:47;5.40;47.00
6443;DHT22;3254;47.372;8.512;2023-02-04T05:32:12;5.40;47.60
6443;DHT22;3254;47.372;8.512;2023-02-04T05:34:38;5.40;49.30
6443;DHT22;3254;47.372;8.512;2023-02-04T05:37:04;5.40;52.50
6443;DHT22;3254;47.372;8.512;2023-02-04T05:39:29;5.40;51.60
6443;DHT22;3254;47.372;8.512;2023-02-04T05:41:55;5.40;53.80
6443;DHT22;3254;47.372;8.512;2023-02-04T05:44:21;5.40;54.60
6443;DHT22;3254;47.372;8.512;2023-02-04T05:46:55;5.40;54.70
6443;DHT22;3254;47.372;8.512;2023-02-04T05:49:22;5.30;55.30
6443;DHT22;3254;47.372;8.512;2023-02-04T05:51:49;5.30;58.10
6443;DHT22;3254;47.372;8.512;2023-02-04T05:54:14;5.30;59.00
6443;DHT22;3254;47.372;8.512;2023-02-04T05:56:44;5.20;59.50
6443;DHT22;3254;47.372;8.512;2023-02-04T05:59:13;5.20;61.40
6443;DHT22;3254;47.372;8.512;2023-02-04T06:01:38;5.30;63.80
6443;DHT22;3254;47.372;8.512;2023-02-04T06:04:04;5.30;63.90
6443;DHT22;3254;47.372;8.512;2023-02-04T06:06:30;5.30;63.20
6443;DHT22;3254;47.372;8.512;2023-02-04T06:08:58;5.30;61.80
6443;DHT22;3254;47.372;8.512;2023-02-04T06:11:24;5.30;61.40
6443;DHT22;3254;47.372;8.512;2023-02-04T06:13:49;5.20;62.00
6443;DHT22;3254;47.372;8.512;2023-02-04T06:16:15;5.30;64.90
6443;DHT22;3254;47.372;8.512;2023-02-04T06:18:42;5.30;61.90
6443;DHT22;3254;47.372;8.512;2023-02-04T06:21:08;5.20;62.80
6443;DHT22;3254;47.372;8.512;2023-02-04T06:23:33;5.20;64.90
6443;DHT22;3254;47.372;8.512;2023-02-04T06:26:02;5.30;63.00
6443;DHT22;3254;47.372;8.512;2023-02-04T06:28:28;5.20;61.80
6443;DHT22;3254;47.372;8.512;2023-02-04T06:30:54;5.20;63.50
6443;DHT22;3254;47.372;8.512;2023-02-04T06:33:21;5.30;61.10
6443;DHT22;3254;47.372;8.512;2023-02-04T06:35:48;5.20;61.60
6443;DHT22;3254;47.372;8.512;2023-02-04T06:38:14;5.30;65.80
6443;DHT22;3254;47.372;8.512;2023-02-04T06:40:40;5.30;65.60
6443;DHT22;3254;47.372;8.512;2023-02-04T06:43:05;5.40;62.90
6443;DHT22;3254;47.372;8.512;2023-02-04T06:45:31;5.30;61.80
6443;DHT22;3254;47.372;8.512;2023-02-04T06:47:57;5.30;62.30
6443;DHT22;3254;47.372;8.512;2023-02-04T06:50:23;5.30;63.40
6443;DHT22;3254;47.372;8.512;2023-02-04T06:52:49;5.30;64.90
6443;DHT22;3254;47.372;8.512;2023-02-04T06:55:16;5.30;65.00
6443;DHT22;3254;47.372;8.512;2023-02-04T06:57:42;5.30;64.90
6443;DHT22;3254;47.372;8.512;2023-02-04T07:00:10;5.20;62.80
6443;DHT22;3254;47.372;8.512;2023-02-04T07:02:36;5.20;66.50
6443;DHT22;3254;47.372;8.512;2023-02-04T07:05:04;5.20;72.20
6443;DHT22;3254;47.372;8.512;2023-02-04T07:07:30;5.20;75.10
6443;DHT22;3254;47.372;8.512;2023-02-04T07:09:56;5.30;77.60
6443;DHT22;3254;47.372;8.512;2023-02-04T07:12:21;5.30;77.40
6443;DHT22;3254;47.372;8.512;2023-02-04T07:14:49;5.30;78.40
6443;DHT22;3254;47.372;8.512;2023-02-04T07:17:15;5.20;80.40
6443;DHT22;3254;47.372;8.512;2023-02-04T07:19:41;5.20;82.00
6443;DHT22;3254;47.372;8.512;2023-02-04T07:22:06;5.20;84.50
6443;DHT22;3254;47.372;8.512;2023-02-04T07:24:32;5.20;84.80
6443;DHT22;3254;47.372;8.512;2023-02-04T07:26:57;5.20;86.70
6443;DHT22;3254;47.372;8.512;2023-02-04T07:29:23;5.20;90.10
6443;DHT22;3254;47.372;8.512;2023-02-04T07:31:49;5.20;89.50
6443;DHT22;3254;47.372;8.512;2023-02-04T07:34:17;5.30;90.90
6443;DHT22;3254;47.372;8.512;2023-02-04T07:36:43;5.20;91.70
6443;DHT22;3254;47.372;8.512;2023-02-04T07:39:09;5.30;91.50
6443;DHT22;3254;47.372;8.512;2023-02-04T07:41:35;5.30;90.20
6443;DHT22;3254;47.372;8.512;2023-02-04T07:44:00;5.40;89.70
6443;DHT22;3254;47.372;8.512;2023-02-04T07:46:27;5.40;88.10
6443;DHT22;3254;47.372;8.512;2023-02-04T07:48:53;5.40;85.80
6443;DHT22;3254;47.372;8.512;2023-02-04T07:51:19;5.30;81.80
6443;DHT22;3254;47.372;8.512;2023-02-04T07:53:44;5.40;87.50
6443;DHT22;3254;47.372;8.512;2023-02-04T07:56:10;5.40;84.80
6443;DHT22;3254;47.372;8.512;2023-02-04T07:58:35;5.40;84.80
6443;DHT22;3254;47.372;8.512;2023-02-04T08:01:01;5.50;84.20
6443;DHT22;3254;47.372;8.512;2023-02-04T08:03:27;5.50;78.10
6443;DHT22;3254;47.372;8.512;2023-02-04T08:05:53;5.50;74.10
6443;DHT22;3254;47.372;8.512;2023-02-04T08:08:18;5.50;73.90
6443;DHT22;3254;47.372;8.512;2023-02-04T08:10:45;5.50;73.90
6443;DHT22;3254;47.372;8.512;2023-02-04T08:13:11;5.60;73.00
6443;DHT22;3254;47.372;8.512;2023-02-04T08:15:37;5.60;71.50
6443;DHT22;3254;47.372;8.512;2023-02-04T08:18:03;5.70;71.20
6443;DHT22;3254;47.372;8.512;2023-02-04T08:20:29;5.70;67.00
6443;DHT22;3254;47.372;8.512;2023-02-04T08:22:55;5.70;65.90
6443;DHT22;3254;47.372;8.512;2023-02-04T08:25:22;5.70;66.20
6443;DHT22;3254;47.372;8.512;2023-02-04T08:27:47;5.70;66.40
6443;DHT22;3254;47.372;8.512;2023-02-04T08:30:13;5.70;67.50
6443;DHT22;3254;47.372;8.512;2023-02-04T08:32:40;5.80;69.40
6443;DHT22;3254;47.372;8.512;2023-02-04T08:35:06;5.90;66.10
6443;DHT22;3254;47.372;8.512;2023-02-04T08:37:34;5.90;65.90
6443;DHT22;3254;47.372;8.512;2023-02-04T08:40:00;5.90;66.70
6443;DHT22;3254;47.372;8.512;2023-02-04T08:42:27;6.00;67.10
6443;DHT22;3254;47.372;8.512;2023-02-04T08:44:53;6.00;66.10
6443;DHT22;3254;47.372;8.512;2023-02-04T08:47:19;6.10;66.00
6443;DHT22;3254;47.372;8.512;2023-02-04T08:49:46;6.20;62.10
6443;DHT22;3254;47.372;8.512;2023-02-04T08:52:11;6.20;58.60
6443;DHT22;3254;47.372;8.512;2023-02-04T08:54:37;6.20;58.70
6443;DHT22;3254;47.372;8.512;2023-02-04T08:57:04;6.20;58.20
6443;DHT22;3254;47.372;8.512;2023-02-04T08:59:30;6.20;58.60
6443;DHT22;3254;47.372;8.512;2023-02-04T09:01:57;6.30;59.00
6443;DHT22;3254;47.372;8.512;2023-02-04T09:04:26;6.30;61.20
6443;DHT22;3254;47.372;8.512;2023-02-04T09:06:53;6.40;58.50
6443;DHT22;3254;47.372;8.512;2023-02-04T09:09:19;6.60;57.20
6443;DHT22;3254;47.372;8.512;2023-02-04T09:11:45;6.70;52.90
6443;DHT22;3254;47.372;8.512;2023-02-04T09:14:10;6.80;50.50
6443;DHT22;3254;47.372;8.512;2023-02-04T09:16:37;6.80;43.50
6443;DHT22;3254;47.372;8.512;2023-02-04T09:19:07;6.90;41.90
6443;DHT22;3254;47.372;8.512;2023-02-04T09:21:37;7.00;37.80
6443;DHT22;3254;47.372;8.512;2023-02-04T09:24:04;7.10;37.90
6443;DHT22;3254;47.372;8.512;2023-02-04T09:26:32;7.30;36.80
6443;DHT22;3254;47.372;8.512;2023-02-04T09:28:57;7.40;31.80
6443;DHT22;3254;47.372;8.512;2023-02-04T09:31:26;7.60;28.30
6443;DHT22;3254;47.372;8.512;2023-02-04T09:33:53;7.70;24.90
6443;DHT22;3254;47.372;8.512;2023-02-04T09:36:19;7.70;21.70
6443;DHT22;3254;47.372;8.512;2023-02-04T09:38:45;7.80;20.60
6443;DHT22;3254;47.372;8.512;2023-02-04T09:41:12;7.90;18.50
6443;DHT22;3254;47.372;8.512;2023-02-04T09:43:41;7.80;18.00
6443;DHT22;3254;47.372;8.512;2023-02-04T09:46:28;7.80;16.80
6443;DHT22;3254;47.372;8.512;2023-02-04T09:48:55;7.80;14.80
6443;DHT22;3254;47.372;8.512;2023-02-04T09:51:30;7.90;14.00
6443;DHT22;3254;47.372;8.512;2023-02-04T09:54:05;7.80;12.80
6443;DHT22;3254;47.372;8.512;2023-02-04T09:56:33;7.80;12.40
6443;DHT22;3254;47.372;8.512;2023-02-04T09:58:59;7.90;11.80
6443;DHT22;3254;47.372;8.512;2023-02-04T10:01:25;8.00;10.60
6443;DHT22;3254;47.372;8.512;2023-02-04T10:03:54;8.10;10.00
6443;DHT22;3254;47.372;8.512;2023-02-04T10:06:24;8.00;10.60
6443;DHT22;3254;47.372;8.512;2023-02-04T10:08:50;8.00;8.40
6443;DHT22;3254;47.372;8.512;2023-02-04T10:11:17;8.00;7.80
6443;DHT22;3254;47.372;8.512;2023-02-04T10:13:51;8.20;9.10
6443;DHT22;3254;47.372;8.512;2023-02-04T10:16:24;8.10;6.90
6443;DHT22;3254;47.372;8.512;2023-02-04T10:18:55;8.30;6.20
6443;DHT22;3254;47.372;8.512;2023-02-04T10:21:27;8.30;4.70
6443;DHT22;3254;47.372;8.512;2023-02-04T10:23:55;8.40;4.90
6443;DHT22;3254;47.372;8.512;2023-02-04T10:26:22;8.40;2.90
6443;DHT22;3254;47.372;8.512;2023-02-04T10:28:49;8.30;3.70
6443;DHT22;3254;47.372;8.512;2023-02-04T10:34:30;7.90;3.50
6443;DHT22;3254;47.372;8.512;2023-02-04T10:36:56;7.70;5.20
6443;DHT22;3254;47.372;8.512;2023-02-04T10:39:28;7.70;5.30
6443;DHT22;3254;47.372;8.512;2023-02-04T10:41:56;7.70;5.30
6443;DHT22;3254;47.372;8.512;2023-02-04T10:44:28;7.80;6.20
6443;DHT22;3254;47.372;8.512;2023-02-04T10:47:17;7.80;7.00
6443;DHT22;3254;47.372;8.512;2023-02-04T10:49:54;7.90;6.00
6443;DHT22;3254;47.372;8.512;2023-02-04T10:52:23;7.80;7.10
6443;DHT22;3254;47.372;8.512;2023-02-04T10:54:51;7.90;8.90
6443;DHT22;3254;47.372;8.512;2023-02-04T10:57:28;8.00;9.90
6443;DHT22;3254;47.372;8.512;2023-02-04T11:00:00;8.00;9.10
6443;DHT22;3254;47.372;8.512;2023-02-04T11:02:43;7.90;7.60
6443;DHT22;3254;47.372;8.512;2023-02-04T11:05:21;8.00;6.90
6443;DHT22;3254;47.372;8.512;2023-02-04T11:07:48;7.90;7.80
6443;DHT22;3254;47.372;8.512;2023-02-04T11:10:20;7.90;7.30
6443;DHT22;3254;47.372;8.512;2023-02-04T11:13:18;8.10;6.30
6443;DHT22;3254;47.372;8.512;2023-02-04T11:15:48;8.20;5.40
6443;DHT22;3254;47.372;8.512;2023-02-04T11:20:51;8.50;2.40
6443;DHT22;3254;47.372;8.512;2023-02-04T11:26:09;8.60;1.90
6443;DHT22;3254;47.372;8.512;2023-02-04T11:28:50;8.60;1.00
6443;DHT22;3254;47.372;8.512;2023-02-04T11:33:49;8.40;2.80
6443;DHT22;3254;47.372;8.512;2023-02-04T11:36:26;8.30;3.80
6443;DHT22;3254;47.372;8.512;2023-02-04T11:38:52;8.20;5.40
6443;DHT22;3254;47.372;8.512;2023-02-04T11:41:27;8.00;5.00
6443;DHT22;3254;47.372;8.512;2023-02-04T11:43:54;7.90;7.00
6443;DHT22;3254;47.372;8.512;2023-02-04T11:46:27;7.90;7.00
6443;DHT22;3254;47.372;8.512;2023-02-04T11:48:54;8.00;7.50
6443;DHT22;3254;47.372;8.512;2023-02-04T11:51:27;8.00;9.30
6443;DHT22;3254;47.372;8.512;2023-02-04T11:53:55;7.90;8.60
6443;DHT22;3254;47.372;8.512;2023-02-04T11:56:22;7.80;11.70
6443;DHT22;3254;47.372;8.512;2023-02-04T11:58:49;7.80;13.70
6443;DHT22;3254;47.372;8.512;2023-02-04T12:01:20;7.60;12.70
6443;DHT22;3254;47.372;8.512;2023-02-04T12:03:50;7.50;14.40
6443;DHT22;3254;47.372;8.512;2023-02-04T12:06:29;7.50;16.80
6443;DHT22;3254;47.372;8.512;2023-02-04T12:11:54;7.30;22.20
6443;DHT22;3254;47.372;8.512;2023-02-04T12:14:20;7.20;25.60
6443;DHT22;3254;47.372;8.512;2023-02-04T12:16:48;7.00;29.60
6443;DHT22;3254;47.372;8.512;2023-02-04T12:19:16;6.90;34.90
6443;DHT22;3254;47.372;8.512;2023-02-04T12:21:42;6.90;34.50
6443;DHT22;3254;47.372;8.512;2023-02-04T12:24:08;6.80;34.30
6443;DHT22;3254;47.372;8.512;2023-02-04T12:26:34;6.80;37.10
6443;DHT22;3254;47.372;8.512;2023-02-04T12:29:00;6.80;41.50
6443;DHT22;3254;47.372;8.512;2023-02-04T12:31:28;6.90;40.20
6443;DHT22;3254;47.372;8.512;2023-02-04T12:33:54;6.90;38.30
6443;DHT22;3254;47.372;8.512;2023-02-04T12:36:20;6.90;40.80
6443;DHT22;3254;47.372;8.512;2023-02-04T12:38:46;6.90;41.60
6443;DHT22;3254;47.372;8.512;2023-02-04T12:41:11;6.90;45.40
6443;DHT22;3254;47.372;8.512;2023-02-04T12:43:37;6.90;50.30
6443;DHT22;3254;47.372;8.512;2023-02-04T12:46:09;7.00;53.00
6443;DHT22;3254;47.372;8.512;2023-02-04T12:48:34;7.00;50.90
6443;DHT22;3254;47.372;8.512;2023-02-04T12:51:00;7.00;55.60
6443;DHT22;3254;47.372;8.512;2023-02-04T12:53:26;6.90;53.80
6443;DHT22;3254;47.372;8.512;2023-02-04T12:55:52;6.90;58.40
6443;DHT22;3254;47.372;8.512;2023-02-04T12:58:17;6.80;62.00
6443;DHT22;3254;47.372;8.512;2023-02-04T13:00:43;6.80;64.70
6443;DHT22;3254;47.372;8.512;2023-02-04T13:03:09;6.80;60.30
6443;DHT22;3254;47.372;8.512;2023-02-04T13:05:35;6.90;66.90
6443;DHT22;3254;47.372;8.512;2023-02-04T13:08:00;6.90;72.80
6443;DHT22;3254;47.372;8.512;2023-02-04T13:10:27;7.00;76.20
6443;DHT22;3254;47.372;8.512;2023-02-04T13:12:53;7.10;73.90
6443;DHT22;3254;47.372;8.512;2023-02-04T13:15:19;7.30;81.90
6443;DHT22;3254;47.372;8.512;2023-02-04T13:17:44;7.50;61.30
6443;DHT22;3254;47.372;8.512;2023-02-04T13:20:10;7.50;50.70
6443;DHT22;3254;47.372;8.512;2023-02-04T13:22:37;7.70;45.50
6443;DHT22;3254;47.372;8.512;2023-02-04T13:25:04;7.80;41.40
6443;DHT22;3254;47.372;8.512;2023-02-04T13:27:30;8.00;40.10
6443;DHT22;3254;47.372;8.512;2023-02-04T13:29:56;8.00;38.70
6443;DHT22;3254;47.372;8.512;2023-02-04T13:32:23;8.10;34.80
6443;DHT22;3254;47.372;8.512;2023-02-04T13:34:49;8.20;37.50
6443;DHT22;3254;47.372;8.512;2023-02-04T13:37:20;8.40;33.20
6443;DHT22;3254;47.372;8.512;2023-02-04T13:39:46;8.60;33.20
6443;DHT22;3254;47.372;8.512;2023-02-04T13:42:11;8.80;29.80
6443;DHT22;3254;47.372;8.512;2023-02-04T13:44:37;8.80;23.00
6443;DHT22;3254;47.372;8.512;2023-02-04T13:47:03;8.90;19.90
6443;DHT22;3254;47.372;8.512;2023-02-04T13:49:29;8.90;23.10
6443;DHT22;3254;47.372;8.512;2023-02-04T13:51:55;9.20;19.50
6443;DHT22;3254;47.372;8.512;2023-02-04T13:54:20;9.40;14.70
6443;DHT22;3254;47.372;8.512;2023-02-04T13:56:49;9.30;8.70
6443;DHT22;3254;47.372;8.512;2023-02-04T13:59:15;9.10;9.50
6443;DHT22;3254;47.372;8.512;2023-02-04T14:01:41;8.60;8.90
6443;DHT22;3254;47.372;8.512;2023-02-04T14:04:07;8.50;13.80
6443;DHT22;3254;47.372;8.512;2023-02-04T14:06:32;8.40;13.70
6443;DHT22;3254;47.372;8.512;2023-02-04T14:09:00;8.40;17.10
6443;DHT22;3254;47.372;8.512;2023-02-04T14:11:26;8.50;15.40
6443;DHT22;3254;47.372;8.512;2023-02-04T14:13:51;8.60;13.90
6443;DHT22;3254;47.372;8.512;2023-02-04T14:16:18;8.80;9.50
6443;DHT22;3254;47.372;8.512;2023-02-04T14:18:44;8.90;6.70
6443;DHT22;3254;47.372;8.512;2023-02-04T14:21:10;8.90;7.70
6443;DHT22;3254;47.372;8.512;2023-02-04T14:23:36;9.10;5.50
6443;DHT22;3254;47.372;8.512;2023-02-04T14:26:02;9.10;2.30
6443;DHT22;3254;47.372;8.512;2023-02-04T14:28:30;9.10;1.00
6443;DHT22;3254;47.372;8.512;2023-02-04T14:30:55;9.00;1.00
6443;DHT22;3254;47.372;8.512;2023-02-04T14:33:21;8.90;1.00
6443;DHT22;3254;47.372;8.512;2023-02-04T14:35:47;9.00;1.00
6443;DHT22;3254;47.372;8.512;2023-02-04T14:38:12;9.10;1.00
6443;DHT22;3254;47.372;8.512;2023-02-04T14:40:41;9.00;1.00
6443;DHT22;3254;47.372;8.512;2023-02-04T14:43:08;9.00;1.00
6443;DHT22;3254;47.372;8.512;2023-02-04T14:45:39;9.00;1.00
6443;DHT22;3254;47.372;8.512;2023-02-04T14:48:07;9.10;1.00
6443;DHT22;3254;47.372;8.512;2023-02-04T14:50:33;9.50;1.00
6443;DHT22;3254;47.372;8.512;2023-02-04T14:52:59;9.70;1.00
6443;DHT22;3254;47.372;8.512;2023-02-04T14:55:27;9.90;1.00
6443;DHT22;3254;47.372;8.512;2023-02-04T14:57:53;9.60;1.00
6443;DHT22;3254;47.372;8.512;2023-02-04T15:00:19;9.40;1.00
6443;DHT22;3254;47.372;8.512;2023-02-04T15:02:46;9.50;1.00
6443;DHT22;3254;47.372;8.512;2023-02-04T15:05:12;9.50;1.00
6443;DHT22;3254;47.372;8.512;2023-02-04T15:07:39;9.40;1.00
6443;DHT22;3254;47.372;8.512;2023-02-04T15:10:07;9.40;1.00
6443;DHT22;3254;47.372;8.512;2023-02-04T15:12:33;9.10;1.00
6443;DHT22;3254;47.372;8.512;2023-02-04T15:14:58;8.80;1.00
6443;DHT22;3254;47.372;8.512;2023-02-04T15:17:25;8.70;1.00
6443;DHT22;3254;47.372;8.512;2023-02-04T15:19:52;8.70;1.00
6443;DHT22;3254;47.372;8.512;2023-02-04T15:22:17;8.60;1.00
6443;DHT22;3254;47.372;8.512;2023-02-04T15:24:43;8.50;1.00
6443;DHT22;3254;47.372;8.512;2023-02-04T15:27:09;8.40;1.00
6443;DHT22;3254;47.372;8.512;2023-02-04T15:29:35;8.40;1.00
6443;DHT22;3254;47.372;8.512;2023-02-04T15:32:04;8.30;1.00
6443;DHT22;3254;47.372;8.512;2023-02-04T15:34:30;8.40;1.00
6443;DHT22;3254;47.372;8.512;2023-02-04T15:36:56;8.40;1.00
6443;DHT22;3254;47.372;8.512;2023-02-04T15:39:21;8.30;1.00
6443;DHT22;3254;47.372;8.512;2023-02-04T15:41:47;8.30;1.00
6443;DHT22;3254;47.372;8.512;2023-02-04T15:44:12;8.10;1.00
6443;DHT22;3254;47.372;8.512;2023-02-04T15:46:38;8.10;1.00
6443;DHT22;3254;47.372;8.512;2023-02-04T15:49:05;7.90;1.00
6443;DHT22;3254;47.372;8.512;2023-02-04T15:51:31;7.80;1.00
6443;DHT22;3254;47.372;8.512;2023-02-04T15:53:56;7.70;1.00
6443;DHT22;3254;47.372;8.512;2023-02-04T15:56:22;7.60;1.00
6443;DHT22;3254;47.372;8.512;2023-02-04T15:58:49;7.50;1.00
6443;DHT22;3254;47.372;8.512;2023-02-04T16:01:17;7.40;1.00
6443;DHT22;3254;47.372;8.512;2023-02-04T16:03:46;7.40;1.00
6443;DHT22;3254;47.372;8.512;2023-02-04T16:06:13;7.30;1.00
6443;DHT22;3254;47.372;8.512;2023-02-04T16:08:39;7.30;1.00
6443;DHT22;3254;47.372;8.512;2023-02-04T16:11:05;7.30;1.00
6443;DHT22;3254;47.372;8.512;2023-02-04T16:13:30;7.20;1.00
6443;DHT22;3254;47.372;8.512;2023-02-04T16:15:57;7.10;1.00
6443;DHT22;3254;47.372;8.512;2023-02-04T16:18:22;7.10;1.00
6443;DHT22;3254;47.372;8.512;2023-02-04T16:20:50;7.00;1.00
6443;DHT22;3254;47.372;8.512;2023-02-04T16:23:15;6.90;1.00
6443;DHT22;3254;47.372;8.512;2023-02-04T16:25:41;6.80;1.00
6443;DHT22;3254;47.372;8.512;2023-02-04T16:28:07;6.60;1.00
6443;DHT22;3254;47.372;8.512;2023-02-04T16:30:32;6.50;1.00
6443;DHT22;3254;47.372;8.512;2023-02-04T16:33:00;6.40;1.00
6443;DHT22;3254;47.372;8.512;2023-02-04T16:35:25;6.30;1.00
6443;DHT22;3254;47.372;8.512;2023-02-04T16:37:52;6.20;2.50